sensor_id;sensor_type;location;lat;lon;timestamp;P1;durP1;ratioP1;P2;durP2;ratioP2
9156;SDS011;4613;48.392;9.998;2022-10-17T00:01:26;1.30;;;1.20;;
9156;SDS011;4613;48.392;9.998;2022-10-17T00:04:15;1.43;;;1.33;;
9156;SDS011;4613;48.392;9.998;2022-10-17T00:07:06;1.40;;;1.30;;
9156;SDS011;4613;48.392;9.998;2022-10-17T00:09:55;1.23;;;1.20;;
9156;SDS011;4613;48.392;9.998;2022-10-17T00:12:44;1.77;;;1.10;;
9156;SDS011;4613;48.392;9.998;2022-10-17T00:15:34;1.53;;;1.43;;
9156;SDS011;4613;48.392;9.998;2022-10-17T00:18:23;1.30;;;1.20;;
9156;SDS011;4613;48.392;9.998;2022-10-17T00:21:16;1.87;;;1.40;;
9156;SDS011;4613;48.392;9.998;2022-10-17T00:24:06;1.30;;;1.20;;
9156;SDS011;4613;48.392;9.998;2022-10-17T00:26:55;1.13;;;1.10;;
9156;SDS011;4613;48.392;9.998;2022-10-17T00:29:48;1.40;;;1.30;;
9156;SDS011;4613;48.392;9.998;2022-10-17T00:32:39;1.10;;;1.10;;
9156;SDS011;4613;48.392;9.998;2022-10-17T00:35:28;1.17;;;1.17;;
9156;SDS011;4613;48.392;9.998;2022-10-17T00:38:18;1.10;;;1.10;;
9156;SDS011;4613;48.392;9.998;2022-10-17T00:41:08;1.27;;;1.17;;
9156;SDS011;4613;48.392;9.998;2022-10-17T00:44:03;1.30;;;1.20;;
9156;SDS011;4613;48.392;9.998;2022-10-17T00:47:03;1.47;;;1.30;;
9156;SDS011;4613;48.392;9.998;2022-10-17T00:49:57;1.40;;;1.30;;
9156;SDS011;4613;48.392;9.998;2022-10-17T00:52:50;1.13;;;1.10;;
9156;SDS011;4613;48.392;9.998;2022-10-17T00:55:45;1.40;;;1.30;;
9156;SDS011;4613;48.392;9.998;2022-10-17T00:58:40;1.50;;;1.40;;
9156;SDS011;4613;48.392;9.998;2022-10-17T01:01:30;1.27;;;1.20;;
9156;SDS011;4613;48.392;9.998;2022-10-17T01:04:20;1.70;;;1.60;;
9156;SDS011;4613;48.392;9.998;2022-10-17T01:07:09;1.40;;;1.30;;
9156;SDS011;4613;48.392;9.998;2022-10-17T01:09:59;4.20;;;1.43;;
9156;SDS011;4613;48.392;9.998;2022-10-17T01:22:46;1.20;;;1.20;;
9156;SDS011;4613;48.392;9.998;2022-10-17T01:25:55;1.00;;;1.00;;
9156;SDS011;4613;48.392;9.998;2022-10-17T01:32:44;1.30;;;1.20;;
9156;SDS011;4613;48.392;9.998;2022-10-17T01:35:47;1.20;;;1.10;;
9156;SDS011;4613;48.392;9.998;2022-10-17T01:38:46;1.00;;;1.00;;
9156;SDS011;4613;48.392;9.998;2022-10-17T01:41:42;1.10;;;1.10;;
9156;SDS011;4613;48.392;9.998;2022-10-17T01:44:57;1.20;;;1.10;;
9156;SDS011;4613;48.392;9.998;2022-10-17T01:47:55;1.17;;;1.17;;
9156;SDS011;4613;48.392;9.998;2022-10-17T01:50:50;1.20;;;1.10;;
9156;SDS011;4613;48.392;9.998;2022-10-17T01:53:59;1.30;;;1.20;;
9156;SDS011;4613;48.392;9.998;2022-10-17T01:56:54;1.47;;;1.37;;
9156;SDS011;4613;48.392;9.998;2022-10-17T01:59:47;1.60;;;1.20;;
9156;SDS011;4613;48.392;9.998;2022-10-17T02:02:40;1.13;;;1.10;;
9156;SDS011;4613;48.392;9.998;2022-10-17T02:05:32;1.40;;;1.30;;
9156;SDS011;4613;48.392;9.998;2022-10-17T02:08:39;1.40;;;1.30;;
9156;SDS011;4613;48.392;9.998;2022-10-17T02:11:34;1.30;;;1.20;;
9156;SDS011;4613;48.392;9.998;2022-10-17T02:30:06;1.60;;;1.50;;
9156;SDS011;4613;48.392;9.998;2022-10-17T02:33:11;1.40;;;1.30;;
9156;SDS011;4613;48.392;9.998;2022-10-17T02:36:18;1.30;;;1.20;;
9156;SDS011;4613;48.392;9.998;2022-10-17T02:39:11;1.47;;;1.10;;
9156;SDS011;4613;48.392;9.998;2022-10-17T02:42:04;1.50;;;1.40;;
9156;SDS011;4613;48.392;9.998;2022-10-17T02:44:59;1.30;;;1.20;;
9156;SDS011;4613;48.392;9.998;2022-10-17T02:48:01;1.30;;;1.20;;
9156;SDS011;4613;48.392;9.998;2022-10-17T02:56:42;1.63;;;1.53;;
9156;SDS011;4613;48.392;9.998;2022-10-17T02:59:38;1.53;;;1.37;;
9156;SDS011;4613;48.392;9.998;2022-10-17T03:02:37;1.40;;;1.30;;
9156;SDS011;4613;48.392;9.998;2022-10-17T03:05:32;2.00;;;1.80;;
9156;SDS011;4613;48.392;9.998;2022-10-17T03:08:22;2.97;;;1.70;;
9156;SDS011;4613;48.392;9.998;2022-10-17T03:11:12;1.63;;;1.53;;
9156;SDS011;4613;48.392;9.998;2022-10-17T03:14:01;1.40;;;1.30;;
9156;SDS011;4613;48.392;9.998;2022-10-17T03:16:51;1.50;;;1.40;;
9156;SDS011;4613;48.392;9.998;2022-10-17T03:19:41;2.53;;;1.60;;
9156;SDS011;4613;48.392;9.998;2022-10-17T03:22:31;1.60;;;1.50;;
9156;SDS011;4613;48.392;9.998;2022-10-17T03:25:23;2.07;;;1.73;;
9156;SDS011;4613;48.392;9.998;2022-10-17T03:28:14;2.00;;;1.60;;
9156;SDS011;4613;48.392;9.998;2022-10-17T03:31:07;1.80;;;1.70;;
9156;SDS011;4613;48.392;9.998;2022-10-17T03:34:00;2.43;;;2.07;;
9156;SDS011;4613;48.392;9.998;2022-10-17T03:36:51;4.17;;;2.67;;
9156;SDS011;4613;48.392;9.998;2022-10-17T03:39:40;2.13;;;1.90;;
9156;SDS011;4613;48.392;9.998;2022-10-17T03:42:30;2.57;;;1.90;;
9156;SDS011;4613;48.392;9.998;2022-10-17T03:45:20;1.50;;;1.40;;
9156;SDS011;4613;48.392;9.998;2022-10-17T03:48:10;1.50;;;1.40;;
9156;SDS011;4613;48.392;9.998;2022-10-17T03:51:01;1.60;;;1.50;;
9156;SDS011;4613;48.392;9.998;2022-10-17T03:53:55;2.13;;;1.27;;
9156;SDS011;4613;48.392;9.998;2022-10-17T03:56:44;1.40;;;1.30;;
9156;SDS011;4613;48.392;9.998;2022-10-17T03:59:36;1.63;;;1.53;;
9156;SDS011;4613;48.392;9.998;2022-10-17T04:02:32;1.50;;;1.40;;
9156;SDS011;4613;48.392;9.998;2022-10-17T04:05:23;1.40;;;1.30;;
9156;SDS011;4613;48.392;9.998;2022-10-17T04:08:12;1.90;;;1.60;;
9156;SDS011;4613;48.392;9.998;2022-10-17T04:11:22;1.30;;;1.20;;
9156;SDS011;4613;48.392;9.998;2022-10-17T04:14:12;1.60;;;1.50;;
9156;SDS011;4613;48.392;9.998;2022-10-17T04:17:03;1.13;;;1.13;;
9156;SDS011;4613;48.392;9.998;2022-10-17T04:19:53;1.27;;;1.27;;
9156;SDS011;4613;48.392;9.998;2022-10-17T04:22:44;1.10;;;1.10;;
9156;SDS011;4613;48.392;9.998;2022-10-17T04:25:35;1.50;;;1.40;;
9156;SDS011;4613;48.392;9.998;2022-10-17T04:28:24;2.03;;;1.43;;
9156;SDS011;4613;48.392;9.998;2022-10-17T04:31:15;1.70;;;1.60;;
9156;SDS011;4613;48.392;9.998;2022-10-17T04:34:25;2.70;;;1.37;;
9156;SDS011;4613;48.392;9.998;2022-10-17T04:37:15;1.90;;;1.80;;
9156;SDS011;4613;48.392;9.998;2022-10-17T04:40:07;1.97;;;1.70;;
9156;SDS011;4613;48.392;9.998;2022-10-17T04:42:58;2.13;;;1.80;;
9156;SDS011;4613;48.392;9.998;2022-10-17T04:45:56;1.70;;;1.60;;
9156;SDS011;4613;48.392;9.998;2022-10-17T04:48:46;1.77;;;1.67;;
9156;SDS011;4613;48.392;9.998;2022-10-17T04:51:36;2.43;;;1.90;;
9156;SDS011;4613;48.392;9.998;2022-10-17T04:54:40;2.10;;;1.90;;
9156;SDS011;4613;48.392;9.998;2022-10-17T04:57:35;2.87;;;1.80;;
9156;SDS011;4613;48.392;9.998;2022-10-17T05:00:33;1.60;;;1.50;;
9156;SDS011;4613;48.392;9.998;2022-10-17T05:03:32;1.60;;;1.50;;
9156;SDS011;4613;48.392;9.998;2022-10-17T05:06:23;2.30;;;1.83;;
9156;SDS011;4613;48.392;9.998;2022-10-17T05:09:34;1.83;;;1.40;;
9156;SDS011;4613;48.392;9.998;2022-10-17T05:12:23;1.30;;;1.20;;
9156;SDS011;4613;48.392;9.998;2022-10-17T05:15:13;1.77;;;1.50;;
9156;SDS011;4613;48.392;9.998;2022-10-17T05:18:03;1.70;;;1.60;;
9156;SDS011;4613;48.392;9.998;2022-10-17T05:20:53;1.80;;;1.70;;
9156;SDS011;4613;48.392;9.998;2022-10-17T05:23:43;1.50;;;1.40;;
9156;SDS011;4613;48.392;9.998;2022-10-17T05:26:33;1.87;;;1.60;;
9156;SDS011;4613;48.392;9.998;2022-10-17T05:29:22;1.60;;;1.50;;
9156;SDS011;4613;48.392;9.998;2022-10-17T05:32:17;1.47;;;1.37;;
9156;SDS011;4613;48.392;9.998;2022-10-17T05:35:07;1.53;;;1.43;;
9156;SDS011;4613;48.392;9.998;2022-10-17T05:37:58;1.60;;;1.50;;
9156;SDS011;4613;48.392;9.998;2022-10-17T05:40:48;3.57;;;1.60;;
9156;SDS011;4613;48.392;9.998;2022-10-17T05:43:40;1.40;;;1.30;;
9156;SDS011;4613;48.392;9.998;2022-10-17T05:46:29;1.57;;;1.47;;
9156;SDS011;4613;48.392;9.998;2022-10-17T05:49:19;1.97;;;1.70;;
9156;SDS011;4613;48.392;9.998;2022-10-17T05:52:09;1.60;;;1.50;;
9156;SDS011;4613;48.392;9.998;2022-10-17T05:55:12;2.60;;;1.70;;
9156;SDS011;4613;48.392;9.998;2022-10-17T05:58:03;1.80;;;1.47;;
9156;SDS011;4613;48.392;9.998;2022-10-17T06:00:58;1.53;;;1.43;;
9156;SDS011;4613;48.392;9.998;2022-10-17T06:03:49;1.50;;;1.40;;
9156;SDS011;4613;48.392;9.998;2022-10-17T06:06:39;1.50;;;1.40;;
9156;SDS011;4613;48.392;9.998;2022-10-17T06:09:29;1.47;;;1.37;;
9156;SDS011;4613;48.392;9.998;2022-10-17T06:12:19;1.73;;;1.50;;
9156;SDS011;4613;48.392;9.998;2022-10-17T06:15:09;2.03;;;1.80;;
9156;SDS011;4613;48.392;9.998;2022-10-17T06:18:00;1.90;;;1.50;;
9156;SDS011;4613;48.392;9.998;2022-10-17T06:20:50;1.70;;;1.60;;
9156;SDS011;4613;48.392;9.998;2022-10-17T06:23:41;1.73;;;1.63;;
9156;SDS011;4613;48.392;9.998;2022-10-17T06:26:37;1.93;;;1.83;;
9156;SDS011;4613;48.392;9.998;2022-10-17T06:29:30;1.50;;;1.40;;
9156;SDS011;4613;48.392;9.998;2022-10-17T06:32:19;2.30;;;1.90;;
9156;SDS011;4613;48.392;9.998;2022-10-17T06:35:09;1.50;;;1.40;;
9156;SDS011;4613;48.392;9.998;2022-10-17T06:37:59;1.47;;;1.30;;
9156;SDS011;4613;48.392;9.998;2022-10-17T06:40:48;1.33;;;1.23;;
9156;SDS011;4613;48.392;9.998;2022-10-17T06:43:39;1.30;;;1.20;;
9156;SDS011;4613;48.392;9.998;2022-10-17T06:47:05;1.20;;;1.20;;
9156;SDS011;4613;48.392;9.998;2022-10-17T06:49:55;1.70;;;1.50;;
9156;SDS011;4613;48.392;9.998;2022-10-17T06:52:53;1.50;;;1.40;;
9156;SDS011;4613;48.392;9.998;2022-10-17T06:56:01;1.50;;;1.30;;
9156;SDS011;4613;48.392;9.998;2022-10-17T06:59:11;1.53;;;1.43;;
9156;SDS011;4613;48.392;9.998;2022-10-17T07:02:03;1.50;;;1.23;;
9156;SDS011;4613;48.392;9.998;2022-10-17T07:04:53;1.47;;;1.30;;
9156;SDS011;4613;48.392;9.998;2022-10-17T07:07:44;1.60;;;1.50;;
9156;SDS011;4613;48.392;9.998;2022-10-17T07:10:33;1.50;;;1.40;;
9156;SDS011;4613;48.392;9.998;2022-10-17T07:13:28;1.63;;;1.53;;
9156;SDS011;4613;48.392;9.998;2022-10-17T07:16:17;1.80;;;1.70;;
9156;SDS011;4613;48.392;9.998;2022-10-17T07:19:11;1.83;;;1.73;;
9156;SDS011;4613;48.392;9.998;2022-10-17T07:22:01;2.13;;;1.80;;
9156;SDS011;4613;48.392;9.998;2022-10-17T07:24:52;4.63;;;2.10;;
9156;SDS011;4613;48.392;9.998;2022-10-17T07:28:11;2.50;;;2.30;;
9156;SDS011;4613;48.392;9.998;2022-10-17T07:31:07;2.07;;;1.87;;
9156;SDS011;4613;48.392;9.998;2022-10-17T07:33:59;2.60;;;2.03;;
9156;SDS011;4613;48.392;9.998;2022-10-17T07:36:49;2.40;;;1.80;;
9156;SDS011;4613;48.392;9.998;2022-10-17T07:39:40;2.13;;;1.87;;
9156;SDS011;4613;48.392;9.998;2022-10-17T07:42:30;2.63;;;1.70;;
9156;SDS011;4613;48.392;9.998;2022-10-17T07:45:27;1.80;;;1.60;;
9156;SDS011;4613;48.392;9.998;2022-10-17T07:48:17;2.13;;;1.70;;
9156;SDS011;4613;48.392;9.998;2022-10-17T07:51:08;2.90;;;1.50;;
9156;SDS011;4613;48.392;9.998;2022-10-17T07:53:58;2.07;;;1.50;;
9156;SDS011;4613;48.392;9.998;2022-10-17T07:56:47;1.53;;;1.43;;
9156;SDS011;4613;48.392;9.998;2022-10-17T07:59:38;1.40;;;1.30;;
9156;SDS011;4613;48.392;9.998;2022-10-17T08:02:27;1.20;;;1.20;;
9156;SDS011;4613;48.392;9.998;2022-10-17T08:05:16;4.10;;;1.30;;
9156;SDS011;4613;48.392;9.998;2022-10-17T08:08:06;1.13;;;1.13;;
9156;SDS011;4613;48.392;9.998;2022-10-17T08:10:59;1.40;;;1.30;;
9156;SDS011;4613;48.392;9.998;2022-10-17T08:13:50;1.70;;;1.60;;
9156;SDS011;4613;48.392;9.998;2022-10-17T08:16:39;3.20;;;2.30;;
9156;SDS011;4613;48.392;9.998;2022-10-17T08:19:29;1.50;;;1.40;;
9156;SDS011;4613;48.392;9.998;2022-10-17T08:22:19;1.50;;;1.37;;
9156;SDS011;4613;48.392;9.998;2022-10-17T08:25:08;3.37;;;1.90;;
9156;SDS011;4613;48.392;9.998;2022-10-17T08:27:58;5.50;;;3.57;;
9156;SDS011;4613;48.392;9.998;2022-10-17T08:30:47;7.17;;;3.37;;
9156;SDS011;4613;48.392;9.998;2022-10-17T08:33:36;6.80;;;3.23;;
9156;SDS011;4613;48.392;9.998;2022-10-17T08:36:26;4.63;;;2.87;;
9156;SDS011;4613;48.392;9.998;2022-10-17T08:39:17;3.77;;;2.57;;
9156;SDS011;4613;48.392;9.998;2022-10-17T08:42:13;3.27;;;2.30;;
9156;SDS011;4613;48.392;9.998;2022-10-17T08:48:20;2.57;;;2.00;;
9156;SDS011;4613;48.392;9.998;2022-10-17T08:51:30;3.87;;;2.17;;
9156;SDS011;4613;48.392;9.998;2022-10-17T08:54:24;2.07;;;1.87;;
9156;SDS011;4613;48.392;9.998;2022-10-17T08:57:22;3.43;;;2.40;;
9156;SDS011;4613;48.392;9.998;2022-10-17T09:00:13;4.70;;;2.80;;
9156;SDS011;4613;48.392;9.998;2022-10-17T09:12:25;2.30;;;2.10;;
9156;SDS011;4613;48.392;9.998;2022-10-17T09:18:31;2.73;;;2.27;;
9156;SDS011;4613;48.392;9.998;2022-10-17T09:21:42;3.73;;;2.07;;
9156;SDS011;4613;48.392;9.998;2022-10-17T09:27:47;3.37;;;2.07;;
9156;SDS011;4613;48.392;9.998;2022-10-17T09:30:58;1.70;;;1.60;;
9156;SDS011;4613;48.392;9.998;2022-10-17T09:33:49;1.73;;;1.63;;
9156;SDS011;4613;48.392;9.998;2022-10-17T09:36:39;2.20;;;1.80;;
9156;SDS011;4613;48.392;9.998;2022-10-17T09:39:30;2.40;;;1.93;;
9156;SDS011;4613;48.392;9.998;2022-10-17T09:42:20;2.20;;;2.03;;
9156;SDS011;4613;48.392;9.998;2022-10-17T09:45:15;3.63;;;2.07;;
9156;SDS011;4613;48.392;9.998;2022-10-17T09:48:26;2.07;;;1.87;;
9156;SDS011;4613;48.392;9.998;2022-10-17T09:51:23;2.93;;;2.10;;
9156;SDS011;4613;48.392;9.998;2022-10-17T09:54:23;2.00;;;1.87;;
9156;SDS011;4613;48.392;9.998;2022-10-17T09:58:01;3.77;;;1.97;;
9156;SDS011;4613;48.392;9.998;2022-10-17T10:00:52;2.47;;;2.27;;
9156;SDS011;4613;48.392;9.998;2022-10-17T10:04:11;2.23;;;1.73;;
9156;SDS011;4613;48.392;9.998;2022-10-17T10:07:04;2.30;;;2.10;;
9156;SDS011;4613;48.392;9.998;2022-10-17T10:09:55;2.57;;;2.30;;
9156;SDS011;4613;48.392;9.998;2022-10-17T10:12:45;2.17;;;2.00;;
9156;SDS011;4613;48.392;9.998;2022-10-17T10:16:12;1.60;;;1.50;;
9156;SDS011;4613;48.392;9.998;2022-10-17T10:19:05;2.07;;;1.87;;
9156;SDS011;4613;48.392;9.998;2022-10-17T10:22:16;1.97;;;1.77;;
9156;SDS011;4613;48.392;9.998;2022-10-17T10:25:12;2.37;;;1.80;;
9156;SDS011;4613;48.392;9.998;2022-10-17T10:28:08;1.60;;;1.50;;
9156;SDS011;4613;48.392;9.998;2022-10-17T10:31:01;3.37;;;2.50;;
9156;SDS011;4613;48.392;9.998;2022-10-17T10:33:54;1.70;;;1.60;;
9156;SDS011;4613;48.392;9.998;2022-10-17T10:36:45;2.23;;;1.60;;
9156;SDS011;4613;48.392;9.998;2022-10-17T10:39:40;1.40;;;1.30;;
9156;SDS011;4613;48.392;9.998;2022-10-17T10:42:38;1.57;;;1.43;;
9156;SDS011;4613;48.392;9.998;2022-10-17T10:48:26;1.60;;;1.50;;
9156;SDS011;4613;48.392;9.998;2022-10-17T10:51:38;1.50;;;1.40;;
9156;SDS011;4613;48.392;9.998;2022-10-17T10:54:37;1.60;;;1.50;;
9156;SDS011;4613;48.392;9.998;2022-10-17T10:57:30;1.30;;;1.20;;
9156;SDS011;4613;48.392;9.998;2022-10-17T11:00:23;1.60;;;1.50;;
9156;SDS011;4613;48.392;9.998;2022-10-17T11:03:30;1.50;;;1.40;;
9156;SDS011;4613;48.392;9.998;2022-10-17T11:06:29;1.57;;;1.47;;
9156;SDS011;4613;48.392;9.998;2022-10-17T11:09:41;1.60;;;1.50;;
9156;SDS011;4613;48.392;9.998;2022-10-17T11:12:43;3.47;;;1.60;;
9156;SDS011;4613;48.392;9.998;2022-10-17T11:15:47;2.03;;;1.70;;
9156;SDS011;4613;48.392;9.998;2022-10-17T11:18:54;1.73;;;1.50;;
9156;SDS011;4613;48.392;9.998;2022-10-17T11:25:18;3.30;;;1.60;;
9156;SDS011;4613;48.392;9.998;2022-10-17T11:28:24;1.77;;;1.63;;
9156;SDS011;4613;48.392;9.998;2022-10-17T11:31:14;1.60;;;1.50;;
9156;SDS011;4613;48.392;9.998;2022-10-17T11:37:18;1.40;;;1.30;;
9156;SDS011;4613;48.392;9.998;2022-10-17T11:40:16;2.00;;;1.57;;
9156;SDS011;4613;48.392;9.998;2022-10-17T11:43:12;2.50;;;1.60;;
9156;SDS011;4613;48.392;9.998;2022-10-17T11:46:24;5.27;;;1.80;;
9156;SDS011;4613;48.392;9.998;2022-10-17T11:49:17;1.57;;;1.47;;
9156;SDS011;4613;48.392;9.998;2022-10-17T11:55:27;1.53;;;1.43;;
9156;SDS011;4613;48.392;9.998;2022-10-17T12:01:31;1.83;;;1.30;;
9156;SDS011;4613;48.392;9.998;2022-10-17T12:07:37;1.20;;;1.20;;
9156;SDS011;4613;48.392;9.998;2022-10-17T12:13:50;1.43;;;1.33;;
9156;SDS011;4613;48.392;9.998;2022-10-17T12:16:44;1.27;;;1.20;;
9156;SDS011;4613;48.392;9.998;2022-10-17T12:19:35;1.20;;;1.20;;
9156;SDS011;4613;48.392;9.998;2022-10-17T12:22:25;2.63;;;1.30;;
9156;SDS011;4613;48.392;9.998;2022-10-17T12:25:27;2.20;;;2.00;;
9156;SDS011;4613;48.392;9.998;2022-10-17T12:28:30;1.40;;;1.30;;
9156;SDS011;4613;48.392;9.998;2022-10-17T12:31:24;2.83;;;1.57;;
9156;SDS011;4613;48.392;9.998;2022-10-17T12:34:14;1.37;;;1.30;;
9156;SDS011;4613;48.392;9.998;2022-10-17T12:37:09;1.30;;;1.30;;
9156;SDS011;4613;48.392;9.998;2022-10-17T12:39:59;1.40;;;1.30;;
9156;SDS011;4613;48.392;9.998;2022-10-17T12:42:48;1.40;;;1.23;;
9156;SDS011;4613;48.392;9.998;2022-10-17T12:45:49;1.50;;;1.40;;
9156;SDS011;4613;48.392;9.998;2022-10-17T12:51:28;1.43;;;1.20;;
9156;SDS011;4613;48.392;9.998;2022-10-17T12:54:17;1.40;;;1.30;;
9156;SDS011;4613;48.392;9.998;2022-10-17T12:57:14;1.30;;;1.20;;
9156;SDS011;4613;48.392;9.998;2022-10-17T13:00:30;1.53;;;1.30;;
9156;SDS011;4613;48.392;9.998;2022-10-17T13:03:30;1.37;;;1.00;;
9156;SDS011;4613;48.392;9.998;2022-10-17T13:06:30;1.50;;;1.40;;
9156;SDS011;4613;48.392;9.998;2022-10-17T13:09:29;1.30;;;1.20;;
9156;SDS011;4613;48.392;9.998;2022-10-17T13:12:22;1.20;;;1.20;;
9156;SDS011;4613;48.392;9.998;2022-10-17T13:15:17;1.10;;;1.10;;
9156;SDS011;4613;48.392;9.998;2022-10-17T13:18:12;1.10;;;1.10;;
9156;SDS011;4613;48.392;9.998;2022-10-17T13:21:13;1.27;;;1.20;;
9156;SDS011;4613;48.392;9.998;2022-10-17T13:27:28;2.63;;;1.40;;
9156;SDS011;4613;48.392;9.998;2022-10-17T13:30:24;1.07;;;1.07;;
9156;SDS011;4613;48.392;9.998;2022-10-17T13:33:47;1.50;;;1.40;;
9156;SDS011;4613;48.392;9.998;2022-10-17T13:36:30;1.20;;;1.10;;
9156;SDS011;4613;48.392;9.998;2022-10-17T13:39:23;1.20;;;1.10;;
9156;SDS011;4613;48.392;9.998;2022-10-17T13:45:43;1.37;;;1.27;;
9156;SDS011;4613;48.392;9.998;2022-10-17T13:48:35;1.40;;;1.30;;
9156;SDS011;4613;48.392;9.998;2022-10-17T13:51:26;1.00;;;1.00;;
9156;SDS011;4613;48.392;9.998;2022-10-17T13:54:37;1.47;;;1.37;;
9156;SDS011;4613;48.392;9.998;2022-10-17T13:57:30;1.77;;;1.60;;
9156;SDS011;4613;48.392;9.998;2022-10-17T14:00:20;1.50;;;1.40;;
9156;SDS011;4613;48.392;9.998;2022-10-17T14:03:10;1.37;;;1.27;;
9156;SDS011;4613;48.392;9.998;2022-10-17T14:06:11;1.60;;;1.50;;
9156;SDS011;4613;48.392;9.998;2022-10-17T14:09:14;1.67;;;1.30;;
9156;SDS011;4613;48.392;9.998;2022-10-17T14:12:10;1.10;;;1.10;;
9156;SDS011;4613;48.392;9.998;2022-10-17T14:15:01;1.30;;;1.20;;
9156;SDS011;4613;48.392;9.998;2022-10-17T14:17:55;2.60;;;1.70;;
9156;SDS011;4613;48.392;9.998;2022-10-17T14:20:51;1.50;;;1.40;;
9156;SDS011;4613;48.392;9.998;2022-10-17T14:23:41;1.10;;;1.10;;
9156;SDS011;4613;48.392;9.998;2022-10-17T14:26:31;1.20;;;1.10;;
9156;SDS011;4613;48.392;9.998;2022-10-17T14:32:21;1.30;;;1.20;;
9156;SDS011;4613;48.392;9.998;2022-10-17T14:35:15;1.40;;;1.30;;
9156;SDS011;4613;48.392;9.998;2022-10-17T14:38:05;1.27;;;1.23;;
9156;SDS011;4613;48.392;9.998;2022-10-17T14:40:57;1.20;;;1.20;;
9156;SDS011;4613;48.392;9.998;2022-10-17T14:43:57;1.20;;;1.20;;
9156;SDS011;4613;48.392;9.998;2022-10-17T14:46:50;1.37;;;1.30;;
9156;SDS011;4613;48.392;9.998;2022-10-17T14:49:42;1.10;;;1.10;;
9156;SDS011;4613;48.392;9.998;2022-10-17T14:52:32;1.30;;;1.20;;
9156;SDS011;4613;48.392;9.998;2022-10-17T14:55:24;1.07;;;1.07;;
9156;SDS011;4613;48.392;9.998;2022-10-17T14:58:15;1.30;;;1.20;;
9156;SDS011;4613;48.392;9.998;2022-10-17T15:01:18;1.13;;;1.13;;
9156;SDS011;4613;48.392;9.998;2022-10-17T15:04:09;1.43;;;1.30;;
9156;SDS011;4613;48.392;9.998;2022-10-17T15:06:59;1.20;;;1.10;;
9156;SDS011;4613;48.392;9.998;2022-10-17T15:09:49;1.50;;;1.20;;
9156;SDS011;4613;48.392;9.998;2022-10-17T15:12:39;1.20;;;1.20;;
9156;SDS011;4613;48.392;9.998;2022-10-17T15:15:30;1.20;;;1.10;;
9156;SDS011;4613;48.392;9.998;2022-10-17T15:18:20;1.60;;;1.50;;
9156;SDS011;4613;48.392;9.998;2022-10-17T15:21:11;1.50;;;1.40;;
9156;SDS011;4613;48.392;9.998;2022-10-17T15:24:02;1.07;;;1.07;;
9156;SDS011;4613;48.392;9.998;2022-10-17T15:26:52;1.27;;;1.20;;
9156;SDS011;4613;48.392;9.998;2022-10-17T15:29:43;1.40;;;1.30;;
9156;SDS011;4613;48.392;9.998;2022-10-17T15:32:33;1.10;;;1.10;;
9156;SDS011;4613;48.392;9.998;2022-10-17T15:35:23;1.30;;;1.20;;
9156;SDS011;4613;48.392;9.998;2022-10-17T15:38:13;1.20;;;1.20;;
9156;SDS011;4613;48.392;9.998;2022-10-17T15:41:07;2.10;;;1.20;;
9156;SDS011;4613;48.392;9.998;2022-10-17T15:43:58;1.30;;;1.20;;
9156;SDS011;4613;48.392;9.998;2022-10-17T15:46:48;1.40;;;1.30;;
9156;SDS011;4613;48.392;9.998;2022-10-17T15:49:37;1.30;;;1.30;;
9156;SDS011;4613;48.392;9.998;2022-10-17T15:52:27;1.40;;;1.30;;
9156;SDS011;4613;48.392;9.998;2022-10-17T15:55:17;1.23;;;1.13;;
9156;SDS011;4613;48.392;9.998;2022-10-17T15:58:11;1.40;;;1.30;;
9156;SDS011;4613;48.392;9.998;2022-10-17T16:01:04;1.27;;;1.27;;
9156;SDS011;4613;48.392;9.998;2022-10-17T16:03:54;1.30;;;1.20;;
9156;SDS011;4613;48.392;9.998;2022-10-17T16:06:44;2.73;;;1.53;;
9156;SDS011;4613;48.392;9.998;2022-10-17T16:09:33;1.33;;;1.30;;
9156;SDS011;4613;48.392;9.998;2022-10-17T16:12:26;1.43;;;1.33;;
9156;SDS011;4613;48.392;9.998;2022-10-17T16:15:25;1.60;;;1.50;;
9156;SDS011;4613;48.392;9.998;2022-10-17T16:18:15;1.60;;;1.50;;
9156;SDS011;4613;48.392;9.998;2022-10-17T16:21:05;1.77;;;1.67;;
9156;SDS011;4613;48.392;9.998;2022-10-17T16:23:55;1.70;;;1.60;;
9156;SDS011;4613;48.392;9.998;2022-10-17T16:26:44;2.43;;;1.50;;
9156;SDS011;4613;48.392;9.998;2022-10-17T16:29:34;4.03;;;1.70;;
9156;SDS011;4613;48.392;9.998;2022-10-17T16:32:23;1.50;;;1.40;;
9156;SDS011;4613;48.392;9.998;2022-10-17T16:35:17;1.87;;;1.60;;
9156;SDS011;4613;48.392;9.998;2022-10-17T16:38:11;2.07;;;1.97;;
9156;SDS011;4613;48.392;9.998;2022-10-17T16:41:01;2.50;;;2.30;;
9156;SDS011;4613;48.392;9.998;2022-10-17T16:43:52;2.10;;;1.90;;
9156;SDS011;4613;48.392;9.998;2022-10-17T16:46:43;2.27;;;2.10;;
9156;SDS011;4613;48.392;9.998;2022-10-17T16:49:32;3.00;;;2.70;;
9156;SDS011;4613;48.392;9.998;2022-10-17T16:52:24;4.10;;;2.97;;
9156;SDS011;4613;48.392;9.998;2022-10-17T16:55:14;3.43;;;2.70;;
9156;SDS011;4613;48.392;9.998;2022-10-17T16:58:06;3.57;;;2.70;;
9156;SDS011;4613;48.392;9.998;2022-10-17T17:00:59;4.30;;;2.90;;
9156;SDS011;4613;48.392;9.998;2022-10-17T17:03:52;3.00;;;2.43;;
9156;SDS011;4613;48.392;9.998;2022-10-17T17:06:42;3.23;;;2.70;;
9156;SDS011;4613;48.392;9.998;2022-10-17T17:09:32;4.20;;;3.07;;
9156;SDS011;4613;48.392;9.998;2022-10-17T17:12:22;3.83;;;3.30;;
9156;SDS011;4613;48.392;9.998;2022-10-17T17:15:11;7.00;;;3.37;;
9156;SDS011;4613;48.392;9.998;2022-10-17T17:18:01;3.63;;;3.10;;
9156;SDS011;4613;48.392;9.998;2022-10-17T17:20:50;4.20;;;3.40;;
9156;SDS011;4613;48.392;9.998;2022-10-17T17:23:45;4.47;;;3.27;;
9156;SDS011;4613;48.392;9.998;2022-10-17T17:26:35;3.47;;;3.00;;
9156;SDS011;4613;48.392;9.998;2022-10-17T17:29:25;4.90;;;3.00;;
9156;SDS011;4613;48.392;9.998;2022-10-17T17:32:14;2.90;;;2.60;;
9156;SDS011;4613;48.392;9.998;2022-10-17T17:35:04;2.63;;;2.30;;
9156;SDS011;4613;48.392;9.998;2022-10-17T17:37:54;3.27;;;2.20;;
9156;SDS011;4613;48.392;9.998;2022-10-17T17:40:46;4.27;;;2.47;;
9156;SDS011;4613;48.392;9.998;2022-10-17T17:43:35;2.23;;;2.03;;
9156;SDS011;4613;48.392;9.998;2022-10-17T17:46:24;2.60;;;2.40;;
9156;SDS011;4613;48.392;9.998;2022-10-17T17:49:14;3.13;;;2.60;;
9156;SDS011;4613;48.392;9.998;2022-10-17T17:52:03;2.80;;;2.23;;
9156;SDS011;4613;48.392;9.998;2022-10-17T17:54:53;3.50;;;2.77;;
9156;SDS011;4613;48.392;9.998;2022-10-17T17:57:43;3.40;;;2.60;;
9156;SDS011;4613;48.392;9.998;2022-10-17T18:00:33;4.30;;;2.70;;
9156;SDS011;4613;48.392;9.998;2022-10-17T18:03:23;3.83;;;2.63;;
9156;SDS011;4613;48.392;9.998;2022-10-17T18:06:13;2.97;;;2.63;;
9156;SDS011;4613;48.392;9.998;2022-10-17T18:09:04;2.50;;;2.30;;
9156;SDS011;4613;48.392;9.998;2022-10-17T18:11:54;2.93;;;2.33;;
9156;SDS011;4613;48.392;9.998;2022-10-17T18:14:43;2.80;;;2.50;;
9156;SDS011;4613;48.392;9.998;2022-10-17T18:17:32;2.43;;;2.20;;
9156;SDS011;4613;48.392;9.998;2022-10-17T18:20:22;3.53;;;2.17;;
9156;SDS011;4613;48.392;9.998;2022-10-17T18:23:11;2.63;;;2.30;;
9156;SDS011;4613;48.392;9.998;2022-10-17T18:26:01;2.33;;;2.13;;
9156;SDS011;4613;48.392;9.998;2022-10-17T18:28:50;2.10;;;1.90;;
9156;SDS011;4613;48.392;9.998;2022-10-17T18:31:39;2.17;;;1.87;;
9156;SDS011;4613;48.392;9.998;2022-10-17T18:34:28;2.30;;;2.10;;
9156;SDS011;4613;48.392;9.998;2022-10-17T18:37:18;3.27;;;2.27;;
9156;SDS011;4613;48.392;9.998;2022-10-17T18:40:08;2.07;;;1.93;;
9156;SDS011;4613;48.392;9.998;2022-10-17T18:42:59;2.10;;;1.87;;
9156;SDS011;4613;48.392;9.998;2022-10-17T18:45:49;3.63;;;1.90;;
9156;SDS011;4613;48.392;9.998;2022-10-17T18:48:39;1.97;;;1.73;;
9156;SDS011;4613;48.392;9.998;2022-10-17T18:51:29;2.53;;;2.13;;
9156;SDS011;4613;48.392;9.998;2022-10-17T18:54:20;2.17;;;1.97;;
9156;SDS011;4613;48.392;9.998;2022-10-17T18:57:13;2.80;;;1.60;;
9156;SDS011;4613;48.392;9.998;2022-10-17T19:00:03;3.47;;;1.87;;
9156;SDS011;4613;48.392;9.998;2022-10-17T19:02:53;1.90;;;1.80;;
9156;SDS011;4613;48.392;9.998;2022-10-17T19:05:42;2.23;;;2.03;;
9156;SDS011;4613;48.392;9.998;2022-10-17T19:08:35;1.90;;;1.80;;
9156;SDS011;4613;48.392;9.998;2022-10-17T19:11:26;2.37;;;2.17;;
9156;SDS011;4613;48.392;9.998;2022-10-17T19:14:16;2.80;;;2.00;;
9156;SDS011;4613;48.392;9.998;2022-10-17T19:17:06;2.20;;;2.00;;
9156;SDS011;4613;48.392;9.998;2022-10-17T19:19:56;1.63;;;1.53;;
9156;SDS011;4613;48.392;9.998;2022-10-17T19:22:48;2.27;;;2.00;;
9156;SDS011;4613;48.392;9.998;2022-10-17T19:25:37;1.70;;;1.60;;
9156;SDS011;4613;48.392;9.998;2022-10-17T19:28:26;2.27;;;2.00;;